createdAt,value
2022-11-06T00:00:26.433Z,98294.69
2022-11-06T00:03:11.959Z,98162.69
2022-11-06T00:06:15.974Z,98278.16
2022-11-06T00:09:03.935Z,98165.06
2022-11-06T00:11:50.924Z,98315.53
2022-11-06T00:14:36.497Z,98331.19
2022-11-06T00:17:21.989Z,98272.31
2022-11-06T00:20:11.075Z,98144.91
2022-11-06T00:22:56.375Z,98323.63
2022-11-06T00:25:41.901Z,98163.72
2022-11-06T00:28:27.443Z,98154.63
2022-11-06T00:31:19.054Z,98322.75
2022-11-06T00:34:09.082Z,98169.25
2022-11-06T00:36:54.747Z,98202.13
2022-11-06T00:39:40.132Z,98182.75
2022-11-06T00:42:25.585Z,98202.69
2022-11-06T00:45:11.190Z,98185.66
2022-11-06T00:47:56.502Z,98330.69
2022-11-06T00:50:41.859Z,98194.81
2022-11-06T00:53:27.405Z,98184.84
2022-11-06T00:56:18.491Z,98288.06
2022-11-06T00:59:06.663Z,98185.78
2022-11-06T01:01:52.013Z,98313.31
2022-11-06T01:04:37.256Z,98337.19
2022-11-06T01:07:24.188Z,98315.88
2022-11-06T01:10:10.306Z,98255.41
2022-11-06T01:12:55.983Z,98177.91
2022-11-06T01:15:41.554Z,98306.22
2022-11-06T01:18:26.662Z,98337.50
2022-11-06T01:21:15.501Z,98352.69
2022-11-06T01:24:04.592Z,98170.34
2022-11-06T01:27:19.783Z,98344.16
2022-11-06T01:29:56.841Z,98280.19
2022-11-06T01:32:42.215Z,98213.47
2022-11-06T01:35:27.639Z,98339.25
2022-11-06T01:38:13.907Z,98190.94
2022-11-06T01:40:59.584Z,98175.47
2022-11-06T01:43:51.034Z,98360.03
2022-11-06T01:46:36.690Z,98168.22
2022-11-06T01:49:21.989Z,98346.50
2022-11-06T01:52:13.052Z,98173.75
2022-11-06T01:55:08.829Z,98175.97
2022-11-06T01:57:55.442Z,98206.09
2022-11-06T02:00:41.715Z,98293.06
2022-11-06T02:03:27.182Z,98336.97
2022-11-06T02:06:12.915Z,98249.38
2022-11-06T02:08:58.410Z,98198.97
2022-11-06T02:11:50.433Z,98367.34
2022-11-06T02:15:13.959Z,98358.53
2022-11-06T02:18:05.313Z,98368.88
2022-11-06T02:21:03.656Z,98340.09
2022-11-06T02:24:08.000Z,98368.97
2022-11-06T02:27:13.474Z,98199.38
2022-11-06T02:30:04.227Z,98236.69
2022-11-06T02:32:58.466Z,98397.13
2022-11-06T02:35:50.866Z,98377.25
2022-11-06T02:38:49.089Z,98404.59
2022-11-06T02:41:39.686Z,98177.03
2022-11-06T02:44:27.706Z,98202.75
2022-11-06T02:47:15.054Z,98228.63
2022-11-06T02:50:15.715Z,98402.66
2022-11-06T02:53:05.044Z,98399.53
2022-11-06T02:55:53.283Z,98403.19
2022-11-06T02:58:46.146Z,98298.38
2022-11-06T03:01:43.108Z,98246.94
2022-11-06T03:04:37.662Z,98248.56
2022-11-06T03:07:38.524Z,98232.09
2022-11-06T03:10:28.378Z,98382.78
2022-11-06T03:13:32.656Z,98287.38
2022-11-06T03:16:36.510Z,98401.53
2022-11-06T03:19:31.152Z,98403.34
2022-11-06T03:22:45.191Z,98402.19
2022-11-06T03:25:41.059Z,98330.44
2022-11-06T03:28:34.530Z,98254.19
2022-11-06T03:31:27.924Z,98240.28
2022-11-06T03:34:22.534Z,98370.13
2022-11-06T03:37:15.950Z,98345.47
2022-11-06T03:40:08.608Z,98224.31
2022-11-06T03:42:57.938Z,98393.72
2022-11-06T03:45:45.465Z,98275.59
2022-11-06T03:48:37.938Z,98402.88
2022-11-06T03:51:32.334Z,98274.84
2022-11-06T03:54:25.333Z,98364.03
2022-11-06T03:57:17.223Z,98402.38
2022-11-06T04:00:05.310Z,98409.03
2022-11-06T04:03:05.885Z,98407.41
2022-11-06T04:05:56.534Z,98238.97
2022-11-06T04:09:01.728Z,98401.91
2022-11-06T04:12:07.940Z,98390.19
2022-11-06T04:14:57.575Z,98426.97
2022-11-06T04:17:42.988Z,98351.56
2022-11-06T04:20:55.898Z,98259.50
2022-11-06T04:24:29.303Z,98415.41
2022-11-06T04:27:20.347Z,98426.75
2022-11-06T04:30:11.947Z,98419.06
2022-11-06T04:33:16.231Z,98425.59
2022-11-06T04:36:16.466Z,98404.88
2022-11-06T04:39:13.238Z,98246.94
2022-11-06T04:42:16.510Z,98429.84
2022-11-06T04:45:08.466Z,98285.78
2022-11-06T04:47:55.202Z,98256.44
2022-11-06T04:50:46.904Z,98430.81
2022-11-06T04:53:34.360Z,98430.13
2022-11-06T04:56:29.506Z,98275.09
2022-11-06T04:59:18.462Z,98422.53
2022-11-06T05:02:05.495Z,98338.47
2022-11-06T05:04:51.198Z,98463.00
2022-11-06T05:07:36.435Z,98485.16
2022-11-06T05:10:21.879Z,98448.66
2022-11-06T05:13:07.595Z,98369.38
2022-11-06T05:15:57.775Z,98339.59
2022-11-06T05:18:43.409Z,98474.41
2022-11-06T05:21:47.463Z,98467.06
2022-11-06T05:24:32.934Z,98453.16
2022-11-06T05:27:18.288Z,98299.47
2022-11-06T05:30:03.957Z,98299.66
2022-11-06T05:32:49.547Z,98491.31
2022-11-06T05:35:35.024Z,98350.94
2022-11-06T05:38:20.729Z,98329.63
2022-11-06T05:41:06.338Z,98409.91
2022-11-06T05:43:51.923Z,98455.53
2022-11-06T05:46:53.335Z,98489.66
2022-11-06T05:49:38.747Z,98431.97
2022-11-06T05:52:24.578Z,98458.09
2022-11-06T05:55:14.769Z,98493.72
2022-11-06T05:58:01.868Z,98444.91
2022-11-06T06:00:47.499Z,98500.50
2022-11-06T06:03:32.827Z,98510.31
2022-11-06T06:06:19.892Z,98506.59
2022-11-06T06:09:05.601Z,98510.75
2022-11-06T06:11:52.662Z,98482.03
2022-11-06T06:14:38.294Z,98511.97
2022-11-06T06:17:23.645Z,98355.22
2022-11-06T06:20:10.347Z,98486.34
2022-11-06T06:22:57.249Z,98530.22
2022-11-06T06:25:43.160Z,98511.50
2022-11-06T06:28:28.552Z,98514.28
2022-11-06T06:31:14.254Z,98446.50
2022-11-06T06:33:59.634Z,98381.75
2022-11-06T06:36:45.234Z,98538.00
2022-11-06T06:39:31.137Z,98373.50
2022-11-06T06:42:17.172Z,98506.78
2022-11-06T06:45:03.264Z,98390.25
2022-11-06T06:47:49.883Z,98511.19
2022-11-06T06:50:35.755Z,98433.97
2022-11-06T06:53:21.863Z,98533.63
2022-11-06T06:56:07.266Z,98548.72
2022-11-06T06:58:56.186Z,98534.44
2022-11-06T07:01:42.824Z,98382.16
2022-11-06T07:04:28.790Z,98577.16
2022-11-06T07:07:14.214Z,98534.78
2022-11-06T07:10:00.053Z,98549.81
2022-11-06T07:12:45.654Z,98515.84
2022-11-06T07:15:32.327Z,98572.75
2022-11-06T07:18:18.089Z,98513.66
2022-11-06T07:21:12.137Z,98547.31
2022-11-06T07:23:58.135Z,98564.59
2022-11-06T07:26:43.936Z,98418.25
2022-11-06T07:29:29.437Z,98538.50
2022-11-06T07:32:15.014Z,98559.16
2022-11-06T07:35:00.603Z,98492.22
2022-11-06T07:37:46.191Z,98560.31
2022-11-06T07:40:35.850Z,98571.31
2022-11-06T07:43:21.498Z,98589.56
2022-11-06T07:46:09.278Z,98405.38
2022-11-06T07:48:55.145Z,98391.97
2022-11-06T07:51:40.453Z,98541.34
2022-11-06T07:54:26.550Z,98379.09
2022-11-06T07:57:12.512Z,98561.75
2022-11-06T07:59:58.266Z,98564.72
2022-11-06T08:02:44.630Z,98502.53
2022-11-06T08:05:31.164Z,98593.09
2022-11-06T08:08:17.204Z,98547.25
2022-11-06T08:11:08.727Z,98405.03
2022-11-06T08:13:54.584Z,98398.03
2022-11-06T08:16:39.931Z,98502.88
2022-11-06T08:19:25.882Z,98576.47
2022-11-06T08:22:11.811Z,98545.94
2022-11-06T08:24:57.381Z,98581.59
2022-11-06T08:27:43.028Z,98484.47
2022-11-06T08:30:33.311Z,98601.16
2022-11-06T08:33:20.974Z,98600.03
2022-11-06T08:36:09.962Z,98538.94
2022-11-06T08:38:56.255Z,98535.06
2022-11-06T08:41:43.211Z,98593.91
2022-11-06T08:44:33.363Z,98532.31
2022-11-06T08:47:18.956Z,98592.66
2022-11-06T08:50:05.612Z,98580.88
2022-11-06T08:52:51.021Z,98596.38
2022-11-06T08:55:38.540Z,98423.03
2022-11-06T08:58:24.807Z,98590.09
2022-11-06T09:01:10.617Z,98434.44
2022-11-06T09:03:56.014Z,98437.75
2022-11-06T09:06:41.373Z,98580.53
2022-11-06T09:09:31.992Z,98426.00
2022-11-06T09:12:17.970Z,98487.44
2022-11-06T09:15:03.759Z,98451.75
2022-11-06T09:17:51.934Z,98618.84
2022-11-06T09:20:38.041Z,98578.75
2022-11-06T09:23:24.197Z,98493.75
2022-11-06T09:26:09.848Z,98430.03
2022-11-06T09:28:55.631Z,98435.03
2022-11-06T09:31:43.100Z,98577.44
2022-11-06T09:34:28.470Z,98603.00
2022-11-06T09:37:13.996Z,98505.84
2022-11-06T09:40:04.760Z,98437.38
2022-11-06T09:43:05.332Z,98617.38
2022-11-06T09:45:55.004Z,98469.03
2022-11-06T09:48:46.036Z,98602.97
2022-11-06T09:51:58.687Z,98613.09
2022-11-06T09:54:57.532Z,98602.94
2022-11-06T09:57:59.737Z,98579.38
2022-11-06T10:00:45.337Z,98543.84
2022-11-06T10:03:41.974Z,98610.31
2022-11-06T10:06:28.778Z,98604.41
2022-11-06T10:09:14.618Z,98587.06
2022-11-06T10:12:29.339Z,98599.78
2022-11-06T10:15:24.914Z,98577.91
2022-11-06T10:18:37.179Z,98613.59
2022-11-06T10:21:28.130Z,98611.00
2022-11-06T10:24:47.009Z,98590.00
2022-11-06T10:27:42.462Z,98432.97
2022-11-06T10:31:17.345Z,98629.09
2022-11-06T10:34:21.366Z,98407.94
2022-11-06T10:37:24.551Z,98593.66
2022-11-06T10:40:18.833Z,98591.84
2022-11-06T10:43:29.194Z,98587.38
2022-11-06T10:46:17.862Z,98584.78
2022-11-06T10:49:23.353Z,98474.06
2022-11-06T10:52:27.676Z,98587.34
2022-11-06T10:55:35.099Z,98613.19
2022-11-06T10:58:26.680Z,98595.31
2022-11-06T11:01:14.852Z,98590.63
2022-11-06T11:04:01.237Z,98576.69
2022-11-06T11:06:46.727Z,98593.63
2022-11-06T11:09:33.764Z,98538.81
2022-11-06T11:12:27.017Z,98579.25
2022-11-06T11:15:12.600Z,98589.59
2022-11-06T11:18:34.404Z,98561.19
2022-11-06T11:21:19.942Z,98565.94
2022-11-06T11:24:12.020Z,98592.50
2022-11-06T11:27:02.426Z,98556.69
2022-11-06T11:29:50.484Z,98433.94
2022-11-06T11:32:36.057Z,98432.47
2022-11-06T11:35:27.932Z,98510.84
2022-11-06T11:38:15.752Z,98564.84
2022-11-06T11:41:19.621Z,98567.75
2022-11-06T11:44:14.257Z,98568.91
2022-11-06T11:46:59.724Z,98414.13
2022-11-06T11:49:45.699Z,98428.44
2022-11-06T11:52:31.139Z,98407.81
2022-11-06T11:55:23.961Z,98514.03
2022-11-06T11:58:28.821Z,98592.41
2022-11-06T12:01:14.498Z,98439.75
2022-11-06T12:04:00.524Z,98555.13
2022-11-06T12:06:58.783Z,98403.69
2022-11-06T12:09:45.145Z,98574.81
2022-11-06T12:12:33.419Z,98571.72
2022-11-06T12:15:40.523Z,98558.75
2022-11-06T12:18:34.586Z,98508.44
2022-11-06T12:21:38.841Z,98520.53
2022-11-06T12:24:52.729Z,98563.50
2022-11-06T12:27:42.632Z,98525.97
2022-11-06T12:30:33.143Z,98550.72
2022-11-06T12:33:59.572Z,98426.38
2022-11-06T12:36:39.356Z,98554.22
2022-11-06T12:39:29.938Z,98547.41
2022-11-06T12:42:18.866Z,98545.59
2022-11-06T12:45:12.158Z,98501.41
2022-11-06T12:48:10.746Z,98545.41
2022-11-06T12:51:02.280Z,98516.38
2022-11-06T12:54:30.730Z,98558.88
2022-11-06T12:57:42.149Z,98569.03
2022-11-06T13:00:36.003Z,98528.22
2022-11-06T13:03:40.410Z,98490.34
2022-11-06T13:07:00.652Z,98554.13
2022-11-06T13:09:45.922Z,98557.63
2022-11-06T13:12:48.019Z,98515.06
2022-11-06T13:15:52.281Z,98385.44
2022-11-06T13:18:40.387Z,98519.72
2022-11-06T13:21:50.873Z,98552.44
2022-11-06T13:24:58.922Z,98549.09
2022-11-06T13:27:56.108Z,98393.69
2022-11-06T13:30:42.964Z,98409.53
2022-11-06T13:33:34.239Z,98519.41
2022-11-06T13:36:20.893Z,98393.00
2022-11-06T13:39:22.301Z,98561.34
2022-11-06T13:42:23.597Z,98558.41
2022-11-06T13:45:14.878Z,98524.94
2022-11-06T13:48:19.011Z,98563.56
2022-11-06T13:51:11.491Z,98561.69
2022-11-06T13:54:24.047Z,98583.44
2022-11-06T13:57:28.566Z,98563.50
2022-11-06T14:00:51.747Z,98564.97
2022-11-06T14:04:08.976Z,98552.25
2022-11-06T14:06:59.204Z,98390.41
2022-11-06T14:09:46.886Z,98420.75
2022-11-06T14:12:35.046Z,98565.44
2022-11-06T14:15:31.320Z,98526.06
2022-11-06T14:18:26.049Z,98426.09
2022-11-06T14:21:44.817Z,98516.22
2022-11-06T14:24:35.243Z,98522.13
2022-11-06T14:27:23.701Z,98456.97
2022-11-06T14:30:15.350Z,98585.34
2022-11-06T14:33:00.880Z,98479.44
2022-11-06T14:35:46.586Z,98467.63
2022-11-06T14:38:34.106Z,98556.47
2022-11-06T14:41:35.066Z,98572.03
2022-11-06T14:44:29.590Z,98404.06
2022-11-06T14:47:30.050Z,98579.94
2022-11-06T14:50:18.447Z,98570.13
2022-11-06T14:53:21.173Z,98514.50
2022-11-06T14:56:11.243Z,98574.34
2022-11-06T14:59:01.039Z,98512.38
2022-11-06T15:01:57.791Z,98540.66
2022-11-06T15:04:54.668Z,98573.75
2022-11-06T15:10:45.776Z,98414.28
2022-11-06T15:13:31.194Z,98578.59
2022-11-06T15:16:16.959Z,98543.59
2022-11-06T15:19:05.588Z,98555.44
2022-11-06T15:22:09.071Z,98568.25
2022-11-06T15:25:17.920Z,98528.91
2022-11-06T15:28:11.988Z,98433.53
2022-11-06T15:31:11.941Z,98590.75
2022-11-06T15:34:05.976Z,98410.38
2022-11-06T15:36:58.509Z,98563.03
2022-11-06T15:39:52.621Z,98593.28
2022-11-06T15:42:42.012Z,98451.25
2022-11-06T15:45:29.641Z,98430.31
2022-11-06T15:48:24.750Z,98568.34
2022-11-06T15:51:29.390Z,98425.94
2022-11-06T15:54:31.010Z,98445.94
2022-11-06T15:57:25.586Z,98441.72
2022-11-06T16:00:21.029Z,98475.09
2022-11-06T16:03:07.562Z,98591.69
2022-11-06T16:05:56.581Z,98533.88
2022-11-06T16:08:43.432Z,98573.59
2022-11-06T16:11:29.947Z,98569.38
2022-11-06T16:14:16.945Z,98608.66
2022-11-06T16:17:12.370Z,98578.06
2022-11-06T16:20:02.687Z,98591.88
2022-11-06T16:22:49.710Z,98594.13
2022-11-06T16:25:35.246Z,98559.25
2022-11-06T16:28:22.558Z,98584.28
2022-11-06T16:31:18.111Z,98569.44
2022-11-06T16:34:07.524Z,98579.94
2022-11-06T16:37:02.916Z,98602.28
2022-11-06T16:39:54.070Z,98596.41
2022-11-06T16:42:40.423Z,98568.47
2022-11-06T16:45:26.889Z,98616.72
2022-11-06T16:48:12.596Z,98635.97
2022-11-06T16:51:02.363Z,98547.56
2022-11-06T16:53:50.690Z,98601.59
2022-11-06T16:56:36.503Z,98433.94
2022-11-06T16:59:25.149Z,98609.16
2022-11-06T17:02:22.017Z,98431.19
2022-11-06T17:05:12.474Z,98540.59
2022-11-06T17:08:07.321Z,98618.56
2022-11-06T17:10:57.536Z,98503.75
2022-11-06T17:13:45.896Z,98591.22
2022-11-06T17:16:44.710Z,98573.91
2022-11-06T17:19:30.679Z,98579.78
2022-11-06T17:22:17.308Z,98580.88
2022-11-06T17:25:03.536Z,98560.25
2022-11-06T17:27:48.952Z,98594.81
2022-11-06T17:30:35.294Z,98582.13
2022-11-06T17:33:21.481Z,98605.56
2022-11-06T17:36:14.331Z,98581.72
2022-11-06T17:39:01.410Z,98569.38
2022-11-06T17:41:47.887Z,98587.41
2022-11-06T17:44:33.943Z,98583.69
2022-11-06T17:47:19.660Z,98467.06
2022-11-06T17:50:06.801Z,98554.22
2022-11-06T17:52:52.414Z,98412.09
2022-11-06T17:55:38.155Z,98543.34
2022-11-06T17:58:23.698Z,98567.31
2022-11-06T18:01:11.582Z,98433.00
2022-11-06T18:04:00.419Z,98581.59
2022-11-06T18:06:48.885Z,98574.63
2022-11-06T18:09:36.263Z,98423.06
2022-11-06T18:12:28.655Z,98586.03
2022-11-06T18:15:17.041Z,98595.09
2022-11-06T18:18:06.811Z,98586.75
2022-11-06T18:20:53.813Z,98536.63
2022-11-06T18:23:41.432Z,98592.13
2022-11-06T18:26:27.501Z,98483.91
2022-11-06T18:29:13.590Z,98540.13
2022-11-06T18:32:02.119Z,98583.09
2022-11-06T18:34:48.701Z,98503.69
2022-11-06T18:37:36.799Z,98587.16
2022-11-06T18:40:22.434Z,98544.88
2022-11-06T18:43:08.415Z,98604.28
2022-11-06T18:46:04.588Z,98555.50
2022-11-06T18:49:00.787Z,98576.25
2022-11-06T18:51:46.486Z,98533.53
2022-11-06T18:54:31.851Z,98577.06
2022-11-06T18:57:17.348Z,98577.81
2022-11-06T19:00:03.430Z,98585.06
2022-11-06T19:02:49.271Z,98599.66
2022-11-06T19:05:34.910Z,98581.16
2022-11-06T19:08:20.932Z,98550.63
2022-11-06T19:11:08.587Z,98547.50
2022-11-06T19:13:54.288Z,98456.22
2022-11-06T19:16:40.062Z,98565.31
2022-11-06T19:19:26.217Z,98575.19
2022-11-06T19:22:11.803Z,98410.25
2022-11-06T19:24:57.404Z,98550.44
2022-11-06T19:27:43.268Z,98568.97
2022-11-06T19:30:28.656Z,98519.78
2022-11-06T19:33:15.000Z,98416.91
2022-11-06T19:36:02.402Z,98595.03
2022-11-06T19:38:48.804Z,98568.25
2022-11-06T19:41:36.488Z,98576.75
2022-11-06T19:44:22.540Z,98583.03
2022-11-06T19:47:08.611Z,98413.31
2022-11-06T19:49:54.937Z,98591.25
2022-11-06T19:52:45.539Z,98579.81
2022-11-06T19:55:33.393Z,98581.28
2022-11-06T19:58:20.674Z,98584.28
2022-11-06T20:01:08.241Z,98552.75
2022-11-06T20:03:54.206Z,98574.16
2022-11-06T20:06:41.282Z,98596.09
2022-11-06T20:09:28.939Z,98586.72
2022-11-06T20:12:16.083Z,98421.13
2022-11-06T20:15:01.136Z,98423.00
2022-11-06T20:17:47.994Z,98451.66
2022-11-06T20:20:36.423Z,98550.72
2022-11-06T20:23:22.858Z,98618.50
2022-11-06T20:26:08.382Z,98584.69
2022-11-06T20:28:54.140Z,98581.19
2022-11-06T20:31:39.978Z,98479.91
2022-11-06T20:34:25.386Z,98588.84
2022-11-06T20:37:10.808Z,98427.28
2022-11-06T20:39:56.599Z,98471.38
2022-11-06T20:42:42.360Z,98582.75
2022-11-06T20:45:28.122Z,98553.53
2022-11-06T20:48:13.425Z,98414.09
2022-11-06T20:51:01.580Z,98571.34
2022-11-06T20:53:47.638Z,98557.22
2022-11-06T20:56:35.389Z,98570.09
2022-11-06T20:59:21.105Z,98465.31
2022-11-06T21:02:07.437Z,98500.41
2022-11-06T21:04:52.993Z,98460.75
2022-11-06T21:07:40.928Z,98566.53
2022-11-06T21:10:26.376Z,98549.00
2022-11-06T21:13:12.536Z,98538.34
2022-11-06T21:16:06.368Z,98564.56
2022-11-06T21:18:52.500Z,98546.63
2022-11-06T21:21:38.986Z,98518.56
2022-11-06T21:24:24.961Z,98413.28
2022-11-06T21:27:11.591Z,98513.94
2022-11-06T21:30:00.535Z,98523.38
2022-11-06T21:32:45.950Z,98549.03
2022-11-06T21:35:31.343Z,98551.25
2022-11-06T21:38:17.049Z,98545.69
2022-11-06T21:41:15.215Z,98561.97
2022-11-06T21:44:06.571Z,98380.75
2022-11-06T21:46:53.270Z,98412.72
2022-11-06T21:49:38.622Z,98536.50
2022-11-06T21:52:42.748Z,98539.63
2022-11-06T21:55:52.778Z,98528.75
2022-11-06T21:58:39.770Z,98535.03
2022-11-06T22:01:27.093Z,98527.31
2022-11-06T22:04:13.760Z,98541.84
2022-11-06T22:06:59.374Z,98523.06
2022-11-06T22:09:45.142Z,98528.56
2022-11-06T22:12:30.530Z,98523.25
2022-11-06T22:15:16.286Z,98563.25
2022-11-06T22:18:02.110Z,98531.56
2022-11-06T22:20:47.822Z,98535.03
2022-11-06T22:23:34.508Z,98486.97
2022-11-06T22:26:22.666Z,98448.09
2022-11-06T22:29:12.071Z,98411.91
2022-11-06T22:31:57.467Z,98484.84
2022-11-06T22:34:44.415Z,98539.81
2022-11-06T22:37:30.153Z,98493.38
2022-11-06T22:40:15.607Z,98506.63
2022-11-06T22:43:01.111Z,98375.16
2022-11-06T22:45:47.087Z,98371.50
2022-11-06T22:48:33.154Z,98538.47
2022-11-06T22:51:21.904Z,98375.88
2022-11-06T22:54:07.535Z,98380.31
2022-11-06T22:56:53.257Z,98531.66
2022-11-06T22:59:39.059Z,98541.94
2022-11-06T23:02:25.480Z,98561.16
2022-11-06T23:05:11.073Z,98387.31
2022-11-06T23:07:56.446Z,98548.94
2022-11-06T23:10:42.432Z,98564.09
2022-11-06T23:13:28.009Z,98508.53
2022-11-06T23:16:40.243Z,98497.59
2022-11-06T23:19:26.087Z,98529.06
2022-11-06T23:22:30.151Z,98405.84
2022-11-06T23:25:17.480Z,98534.59
2022-11-06T23:28:03.041Z,98539.16
2022-11-06T23:30:49.665Z,98384.88
2022-11-06T23:33:35.417Z,98379.00
2022-11-06T23:36:21.282Z,98511.56
2022-11-06T23:39:06.711Z,98401.53
2022-11-06T23:41:52.262Z,98401.94
2022-11-06T23:44:56.211Z,98412.91
2022-11-06T23:47:41.760Z,98416.00
2022-11-06T23:50:27.195Z,98535.94
2022-11-06T23:53:17.210Z,98498.06
2022-11-06T23:56:07.466Z,98371.75
2022-11-06T23:58:52.888Z,98526.38
